createdAt,value
2023-05-10T02:55:48.743Z,96744.32
2023-05-10T02:58:17.172Z,96738.30
2023-05-10T03:00:44.996Z,96741.66
2023-05-10T03:03:13.432Z,96736.98
2023-05-10T03:05:41.355Z,96730.66
2023-05-10T03:08:38.300Z,96729.58
2023-05-10T03:12:10.243Z,96726.56
2023-05-10T03:15:36.559Z,96722.23
2023-05-10T03:18:11.013Z,96722.38
2023-05-10T03:20:44.170Z,96724.34
2023-05-10T03:23:25.272Z,96726.95
2023-05-10T03:25:54.034Z,96727.52
2023-05-10T03:28:23.052Z,96728.33
2023-05-10T03:30:52.742Z,96723.70
2023-05-10T03:33:22.760Z,96721.92
2023-05-10T03:35:51.610Z,96722.74
2023-05-10T03:38:19.469Z,96720.73
2023-05-10T03:40:47.645Z,96716.06
2023-05-10T03:43:17.833Z,96718.48
2023-05-10T03:45:45.778Z,96718.77
2023-05-10T03:48:14.908Z,96717.18
2023-05-10T03:50:43.771Z,96716.27
2023-05-10T03:53:11.866Z,96715.55
2023-05-10T03:55:42.149Z,96717.09
2023-05-10T03:58:13.430Z,96712.29
2023-05-10T04:00:46.122Z,96714.31
2023-05-10T04:03:15.266Z,96711.62
2023-05-10T04:05:43.251Z,96713.41
2023-05-10T04:08:11.551Z,96709.02
2023-05-10T04:10:39.474Z,96709.23
2023-05-10T04:13:07.439Z,96705.83
2023-05-10T04:15:36.584Z,96706.30
2023-05-10T04:18:06.516Z,96705.00
2023-05-10T04:20:37.968Z,96703.10
2023-05-10T04:23:05.878Z,96703.52
2023-05-10T04:25:37.709Z,96703.69
2023-05-10T04:28:07.818Z,96702.02
2023-05-10T04:30:37.010Z,96697.48
2023-05-10T04:33:05.196Z,96703.96
2023-05-10T04:35:33.292Z,96701.85
2023-05-10T04:38:01.180Z,96710.95
2023-05-10T04:40:29.034Z,96709.48
2023-05-10T04:42:56.983Z,96717.52
2023-05-10T04:45:24.877Z,96719.30
2023-05-10T04:47:52.844Z,96720.23
2023-05-10T04:50:21.338Z,96723.17
2023-05-10T04:52:51.310Z,96724.05
2023-05-10T04:55:20.337Z,96722.84
2023-05-10T04:57:50.856Z,96728.33
2023-05-10T05:00:20.114Z,96722.61
2023-05-10T05:02:49.596Z,96724.81
2023-05-10T05:05:20.386Z,96725.39
2023-05-10T05:07:51.940Z,96722.98
2023-05-10T05:10:25.372Z,96723.56
2023-05-10T05:12:54.187Z,96725.38
2023-05-10T05:15:22.123Z,96722.23
2023-05-10T05:17:50.258Z,96722.23
2023-05-10T05:20:22.150Z,96719.10
2023-05-10T05:22:52.454Z,96720.12
2023-05-10T05:25:20.510Z,96720.27
2023-05-10T05:27:51.022Z,96718.48
2023-05-10T05:30:19.488Z,96715.70
2023-05-10T05:32:48.215Z,96719.98
2023-05-10T05:35:16.551Z,96716.84
2023-05-10T05:37:44.828Z,96717.39
2023-05-10T05:40:14.965Z,96716.05
2023-05-10T05:42:42.943Z,96717.00
2023-05-10T05:45:15.450Z,96714.59
2023-05-10T05:47:46.149Z,96717.33
2023-05-10T05:50:18.084Z,96718.17
2023-05-10T05:52:48.626Z,96716.05
2023-05-10T05:55:34.010Z,96722.78
2023-05-10T05:58:58.082Z,96724.06
2023-05-10T06:01:55.007Z,96727.00
2023-05-10T06:04:28.708Z,96724.36
2023-05-10T06:07:15.489Z,96724.79
2023-05-10T06:20:25.090Z,96717.48
2023-05-10T06:23:31.747Z,96723.95
2023-05-10T06:26:47.483Z,96722.38
2023-05-10T06:29:16.314Z,96721.40
2023-05-10T06:31:44.127Z,96714.40
2023-05-10T06:34:13.304Z,96716.56
2023-05-10T06:36:43.736Z,96711.67
2023-05-10T06:39:12.997Z,96714.17
2023-05-10T06:41:41.509Z,96713.64
2023-05-10T06:44:10.556Z,96715.83
2023-05-10T06:46:38.517Z,96716.88
2023-05-10T06:49:06.399Z,96714.90
2023-05-10T06:51:34.885Z,96714.66
2023-05-10T06:54:53.251Z,96715.34
2023-05-10T06:58:05.735Z,96714.91
2023-05-10T07:01:32.139Z,96718.08
2023-05-10T07:08:28.856Z,96713.02
2023-05-10T07:33:17.937Z,96715.77
2023-05-10T07:46:31.888Z,96710.15
2023-05-10T08:01:13.302Z,96708.56
2023-05-10T08:06:09.859Z,96713.67
2023-05-10T08:14:02.560Z,96706.27
2023-05-10T08:17:27.422Z,96703.52
2023-05-10T08:23:55.817Z,96707.03
2023-05-10T08:27:14.597Z,96705.45
2023-05-10T08:34:01.738Z,96698.71
2023-05-10T09:01:31.956Z,96691.84
2023-05-10T09:04:17.680Z,96695.14
2023-05-10T09:07:12.597Z,96694.58
2023-05-10T09:26:40.691Z,96690.83
2023-05-10T09:30:32.736Z,96689.60
2023-05-10T10:05:22.223Z,96651.04
2023-05-10T10:09:13.856Z,96648.19
2023-05-10T10:32:59.392Z,96630.98
2023-05-10T10:38:55.844Z,96624.95
2023-05-10T10:44:59.979Z,96623.87
2023-05-10T10:48:07.873Z,96618.82
2023-05-10T10:51:04.309Z,96616.17
2023-05-10T10:54:13.117Z,96618.31
2023-05-10T10:57:42.438Z,96614.41
2023-05-10T11:04:02.430Z,96614.54
2023-05-10T11:08:41.278Z,96609.38
2023-05-10T11:43:31.878Z,96577.14
2023-05-10T11:55:36.105Z,96569.73
2023-05-10T11:59:11.789Z,96567.44
2023-05-10T12:03:01.843Z,96564.11
2023-05-10T12:28:23.908Z,96561.43
2023-05-10T12:31:48.622Z,96557.74
2023-05-10T12:38:44.411Z,96551.64
2023-05-10T12:43:18.565Z,96549.00
2023-05-10T13:06:47.675Z,96518.04
2023-05-10T13:09:16.997Z,96520.41
2023-05-10T13:11:52.045Z,96520.21
2023-05-10T13:14:21.279Z,96517.23
2023-05-10T13:16:48.408Z,96515.05
2023-05-10T13:19:17.947Z,96514.27
2023-05-10T13:21:44.997Z,96511.70
2023-05-10T13:24:14.089Z,96505.95
2023-05-10T13:26:55.091Z,96508.34
2023-05-10T13:29:49.100Z,96508.02
2023-05-10T13:32:17.883Z,96505.56
2023-05-10T13:34:46.015Z,96503.89
2023-05-10T13:37:13.288Z,96502.34
2023-05-10T13:39:44.068Z,96499.64
2023-05-10T13:42:24.420Z,96498.69
2023-05-10T13:45:31.056Z,96497.33
2023-05-10T13:47:58.341Z,96496.86
2023-05-10T13:50:35.546Z,96491.83
2023-05-10T13:53:09.175Z,96489.77
2023-05-10T13:55:39.145Z,96486.59
2023-05-10T13:58:07.370Z,96484.76
2023-05-10T14:00:35.849Z,96481.73
2023-05-10T14:03:06.975Z,96481.23
2023-05-10T14:05:34.170Z,96481.59
2023-05-10T14:08:01.591Z,96480.67
2023-05-10T14:10:28.636Z,96479.05
2023-05-10T14:12:56.064Z,96474.13
2023-05-10T14:15:23.002Z,96474.73
2023-05-10T14:17:49.704Z,96472.14
2023-05-10T14:20:16.582Z,96468.81
2023-05-10T14:22:43.266Z,96468.66
2023-05-10T14:25:13.010Z,96468.83
2023-05-10T14:27:39.842Z,96465.06
2023-05-10T14:30:08.923Z,96461.88
2023-05-10T14:32:38.063Z,96457.61
2023-05-10T14:35:06.264Z,96460.00
2023-05-10T14:37:34.071Z,96460.86
2023-05-10T14:40:00.889Z,96463.89
2023-05-10T14:42:28.684Z,96460.24
2023-05-10T14:44:56.667Z,96460.25
2023-05-10T14:47:23.610Z,96458.63
2023-05-10T14:49:50.409Z,96462.44
2023-05-10T14:52:17.660Z,96455.09
2023-05-10T14:54:44.163Z,96460.58
2023-05-10T14:57:10.610Z,96466.34
2023-05-10T14:59:37.069Z,96467.74
2023-05-10T15:02:37.233Z,96464.24
2023-05-10T15:05:24.235Z,96464.19
2023-05-10T15:07:51.546Z,96464.10
2023-05-10T15:10:18.615Z,96466.02
2023-05-10T15:12:45.138Z,96461.29
2023-05-10T15:15:11.644Z,96465.55
2023-05-10T15:17:38.284Z,96459.62
2023-05-10T15:20:05.854Z,96460.11
2023-05-10T15:22:34.335Z,96459.08
2023-05-10T15:25:01.924Z,96460.21
2023-05-10T15:27:28.395Z,96461.59
2023-05-10T15:29:55.593Z,96461.48
2023-05-10T15:32:22.438Z,96461.89
2023-05-10T15:34:49.675Z,96460.19
2023-05-10T15:37:16.171Z,96459.30
2023-05-10T15:39:42.715Z,96457.14
2023-05-10T15:42:09.189Z,96454.77
2023-05-10T15:44:38.668Z,96456.86
2023-05-10T15:47:06.782Z,96452.70
2023-05-10T15:49:34.296Z,96452.84
2023-05-10T15:52:17.076Z,96451.84
2023-05-10T15:55:12.321Z,96457.69
2023-05-10T15:57:42.862Z,96454.54
2023-05-10T16:00:12.491Z,96454.55
2023-05-10T16:02:41.913Z,96457.88
2023-05-10T16:05:13.896Z,96453.19
2023-05-10T16:07:44.940Z,96452.39
2023-05-10T16:10:12.003Z,96449.58
2023-05-10T16:12:58.921Z,96448.63
2023-05-10T16:15:27.600Z,96447.19
2023-05-10T16:17:54.660Z,96447.80
2023-05-10T16:20:27.694Z,96447.48
2023-05-10T16:23:14.987Z,96448.35
2023-05-10T16:25:42.310Z,96449.78
2023-05-10T16:47:09.621Z,96457.09
2023-05-10T16:50:17.932Z,96455.89
2023-05-10T16:53:17.696Z,96455.73
2023-05-10T16:56:25.971Z,96458.10
2023-05-10T16:59:54.536Z,96453.58
2023-05-10T17:03:39.130Z,96460.41
2023-05-10T17:11:52.617Z,96468.95
2023-05-10T17:14:53.215Z,96467.52
2023-05-10T17:22:11.816Z,96474.11
2023-05-10T17:29:44.580Z,96478.73
2023-05-10T17:33:04.711Z,96476.92
2023-05-10T17:36:49.763Z,96478.87
2023-05-10T17:43:46.603Z,96483.10
2023-05-10T17:47:18.635Z,96487.66
2023-05-10T17:50:57.547Z,96489.17
2023-05-10T17:54:28.699Z,96491.14
2023-05-10T17:58:14.579Z,96500.77
2023-05-10T18:01:47.619Z,96502.50
2023-05-10T18:05:00.051Z,96511.36
2023-05-10T18:12:18.564Z,96509.61
2023-05-10T18:15:42.689Z,96516.86
2023-05-10T18:28:45.526Z,96526.06
2023-05-10T18:36:00.553Z,96534.10
2023-05-10T18:39:19.827Z,96535.52
2023-05-10T18:42:33.537Z,96535.16
2023-05-10T18:45:49.856Z,96537.79
2023-05-10T18:49:27.773Z,96535.35
2023-05-10T18:52:56.700Z,96537.89
2023-05-10T18:56:33.612Z,96542.95
2023-05-10T19:00:14.292Z,96547.28
2023-05-10T19:03:50.582Z,96549.41
2023-05-10T19:07:28.525Z,96553.83
2023-05-10T19:11:13.246Z,96558.01
2023-05-10T19:14:40.497Z,96559.94
2023-05-10T19:18:10.636Z,96560.73
2023-05-10T19:21:10.003Z,96563.90
2023-05-10T19:24:48.566Z,96566.59
2023-05-10T19:28:31.870Z,96566.31
2023-05-10T19:32:43.638Z,96565.77
2023-05-10T19:35:51.514Z,96567.75
2023-05-10T19:39:12.614Z,96572.48
2023-05-10T19:42:58.982Z,96573.71
2023-05-10T19:46:12.654Z,96571.43
2023-05-10T19:49:25.394Z,96572.38
2023-05-10T19:52:34.056Z,96570.15
2023-05-10T19:55:21.844Z,96574.86
2023-05-10T19:58:32.991Z,96572.73
2023-05-10T20:01:41.414Z,96574.66
2023-05-10T20:04:49.370Z,96570.27
2023-05-10T20:07:59.216Z,96572.24
2023-05-10T20:11:07.212Z,96572.41
2023-05-10T20:13:56.699Z,96568.66
2023-05-10T20:16:38.078Z,96571.73
2023-05-10T20:19:46.871Z,96568.30
2023-05-10T20:22:44.451Z,96574.56
2023-05-10T20:25:34.086Z,96575.04
2023-05-10T20:28:28.859Z,96577.29
2023-05-10T20:31:16.638Z,96575.13
2023-05-10T20:34:24.383Z,96573.58
2023-05-10T20:37:29.820Z,96576.02
2023-05-10T20:40:38.796Z,96579.80
2023-05-10T20:43:46.047Z,96587.44
2023-05-10T20:47:12.739Z,96584.30
2023-05-10T20:50:15.561Z,96584.58
2023-05-10T20:53:43.092Z,96583.40
2023-05-10T20:57:31.606Z,96584.63
2023-05-10T21:00:26.471Z,96585.84
2023-05-10T21:03:43.232Z,96588.13
2023-05-10T21:06:40.785Z,96591.14
2023-05-10T21:09:51.161Z,96594.50
2023-05-10T21:13:25.188Z,96596.38
2023-05-10T21:16:48.391Z,96592.68
2023-05-10T21:20:27.927Z,96592.17
2023-05-10T21:23:44.330Z,96591.81
2023-05-10T21:27:24.512Z,96595.77
2023-05-10T21:29:55.535Z,96596.50
2023-05-10T21:32:36.867Z,96598.95
2023-05-10T21:35:08.916Z,96596.21
2023-05-10T21:37:35.382Z,96597.15
2023-05-10T21:40:03.963Z,96592.89
2023-05-10T21:42:31.279Z,96593.27
2023-05-10T21:44:57.801Z,96588.61
2023-05-10T21:47:24.376Z,96593.91
2023-05-10T21:49:51.182Z,96595.84
2023-05-10T21:52:17.776Z,96600.73
2023-05-10T21:54:44.322Z,96602.45
2023-05-10T21:57:11.273Z,96605.75
2023-05-10T21:59:38.234Z,96599.95
2023-05-10T22:02:04.805Z,96603.60
2023-05-10T22:04:31.425Z,96608.70
2023-05-10T22:06:57.954Z,96614.29
2023-05-10T22:09:24.814Z,96616.27
2023-05-10T22:11:51.330Z,96613.95
2023-05-10T22:14:17.833Z,96615.04
2023-05-10T22:16:44.396Z,96616.65
2023-05-10T22:19:11.306Z,96614.77
2023-05-10T22:21:37.828Z,96616.14
2023-05-10T22:24:04.572Z,96616.52
2023-05-10T22:26:31.048Z,96611.53
2023-05-10T22:28:57.521Z,96617.13
2023-05-10T22:31:24.056Z,96617.26
2023-05-10T22:33:50.461Z,96618.80
2023-05-10T22:36:16.937Z,96617.92
2023-05-10T22:38:43.391Z,96618.23
2023-05-10T22:41:09.867Z,96618.64
2023-05-10T22:43:36.300Z,96618.04
2023-05-10T22:46:02.993Z,96619.29
2023-05-10T22:48:29.552Z,96615.32
2023-05-10T22:51:36.892Z,96621.67
2023-05-10T22:54:44.099Z,96616.63
2023-05-10T22:58:30.957Z,96615.49
2023-05-10T23:01:58.508Z,96616.33
2023-05-10T23:05:09.773Z,96615.13
2023-05-10T23:08:50.969Z,96611.77
2023-05-10T23:12:16.229Z,96610.08
2023-05-10T23:16:11.856Z,96611.63
2023-05-10T23:19:16.953Z,96613.14
2023-05-10T23:22:50.679Z,96619.20
2023-05-10T23:26:16.605Z,96618.95
2023-05-10T23:29:49.577Z,96613.37
2023-05-10T23:32:57.637Z,96613.44
2023-05-10T23:36:54.556Z,96618.81
2023-05-10T23:39:36.686Z,96617.31
2023-05-10T23:42:35.024Z,96619.84
2023-05-10T23:46:20.695Z,96618.60
2023-05-10T23:49:44.607Z,96617.42
2023-05-10T23:53:26.629Z,96615.48
2023-05-10T23:57:23.556Z,96616.25
